PWSweather.com
Personal Weather Stations
Station Observations
SHAHALMS1
Eftra, Falkenberg, HA

EftraFalkenberg, HA

Lat: 56.85, Lon: 12.65

Elevation: 140

Station Type:

http://hem.passagen.se/risarp101

High Low Average
Temperature 57.2°F14.0°C 50.0°F10.0°C 53.4°F11.9°C
Dew Point 54.9°F12.7°C 40.3°F4.6°C 47.8°F8.8°C
Winds 21.2 mph 34.1 kmh 3.2 mph 5.1 kmh 11.0 mph WSW17.7 kmh WSW
Wind Gusts 51.2 mph82.4 kmh 8.6 mph13.8 kmh 24.0 mph38.6 kmh
Humidity 100% 65% 82%
Pressure 29.77 in1008.1 mb 29.30 in992.2 mb -
Precipitation 0.23 in5.8 mm - -
Hour Temp Dew Point Humidity Winds Wind Gusts Pressure Precip Precip Rate Daily Precip Total
12:00 AM 54.7°F12.6°C 54.7°F12.6°C 100% 10.2 mph SW16.4 kmh SW 23.6 mph38.0 kmh 29.53 in1000.0 mb 0.00 in0.0 mm 0.00 in0.0 mm 0.00 in0.0 mm
12:15 AM 54.7°F12.6°C 54.7°F12.6°C 100% 8.3 mph S13.4 kmh S 20.0 mph32.2 kmh 29.53 in1000.0 mb 0.00 in0.0 mm 0.00 in0.0 mm 0.00 in0.0 mm
12:30 AM 54.7°F12.6°C 54.7°F12.6°C 100% 7.8 mph S12.6 kmh S 13.6 mph21.9 kmh 29.50 in999.0 mb 0.00 in0.0 mm 0.00 in0.0 mm 0.00 in0.0 mm
12:45 AM 54.7°F12.6°C 54.7°F12.6°C 100% 8.4 mph S13.5 kmh S 19.7 mph31.7 kmh 29.50 in999.0 mb 0.00 in0.0 mm 0.00 in0.0 mm 0.00 in0.0 mm
01:00 AM 54.9°F12.7°C 54.9°F12.7°C 100% 8.9 mph S14.3 kmh S 23.6 mph38.0 kmh 29.50 in999.0 mb 0.00 in0.0 mm 0.00 in0.0 mm 0.00 in0.0 mm
01:15 AM 54.7°F12.6°C 53.8°F12.1°C 97% 10.7 mph S17.2 kmh S 28.3 mph45.5 kmh 29.50 in999.0 mb 0.00 in0.0 mm 0.00 in0.0 mm 0.00 in0.0 mm
01:30 AM 54.9°F12.7°C 54.0°F12.2°C 97% 11.5 mph SSW18.5 kmh SSW 31.1 mph50.1 kmh 29.50 in999.0 mb 0.00 in0.0 mm 0.00 in0.0 mm 0.00 in0.0 mm
01:45 AM 54.9°F12.7°C 54.0°F12.2°C 97% 8.5 mph S13.7 kmh S 20.8 mph33.5 kmh 29.50 in999.0 mb 0.00 in0.0 mm 0.00 in0.0 mm 0.00 in0.0 mm
02:00 AM 54.7°F12.6°C 53.8°F12.1°C 97% 8.1 mph S13.0 kmh S 15.4 mph24.8 kmh 29.50 in999.0 mb 0.00 in0.0 mm 0.00 in0.0 mm 0.00 in0.0 mm
02:15 AM 54.7°F12.6°C 53.6°F12.0°C 96% 10.2 mph S16.4 kmh S 23.3 mph37.5 kmh 29.45 in997.3 mb 0.00 in0.0 mm 0.00 in0.0 mm 0.00 in0.0 mm
02:30 AM 54.7°F12.6°C 53.6°F12.0°C 96% 7.4 mph S11.9 kmh S 15.4 mph24.8 kmh 29.45 in997.3 mb 0.00 in0.0 mm 0.00 in0.0 mm 0.00 in0.0 mm
02:45 AM 54.7°F12.6°C 53.6°F12.0°C 96% 9.7 mph SSW15.6 kmh SSW 20.8 mph33.5 kmh 29.45 in997.3 mb 0.00 in0.0 mm 0.00 in0.0 mm 0.00 in0.0 mm
03:00 AM 54.5°F12.5°C 53.4°F11.9°C 96% 8.8 mph S14.2 kmh S 20.4 mph32.8 kmh 29.47 in998.0 mb 0.00 in0.0 mm 0.00 in0.0 mm 0.00 in0.0 mm
03:15 AM 54.5°F12.5°C 53.4°F11.9°C 96% 8.9 mph S14.3 kmh S 20.0 mph32.2 kmh 29.45 in997.3 mb 0.00 in0.0 mm 0.00 in0.0 mm 0.00 in0.0 mm
03:30 AM 54.3°F12.4°C 53.2°F11.8°C 96% 11.2 mph S18.0 kmh S 27.9 mph44.9 kmh 29.41 in995.9 mb 0.00 in0.0 mm 0.00 in0.0 mm 0.00 in0.0 mm
03:45 AM 54.3°F12.4°C 53.5°F11.9°C 97% 11.4 mph S18.3 kmh S 23.6 mph38.0 kmh 29.41 in995.9 mb 0.00 in0.0 mm 0.00 in0.0 mm 0.00 in0.0 mm
04:00 AM 54.3°F12.4°C 53.5°F11.9°C 97% 11.7 mph S18.8 kmh S 23.3 mph37.5 kmh 29.39 in995.3 mb 0.00 in0.0 mm 0.00 in0.0 mm 0.00 in0.0 mm
04:15 AM 54.3°F12.4°C 53.5°F11.9°C 97% 15.3 mph S24.6 kmh S 26.5 mph42.6 kmh 29.39 in995.3 mb 0.00 in0.0 mm 0.00 in0.0 mm 0.00 in0.0 mm
04:30 AM 54.3°F12.4°C 53.5°F11.9°C 97% 8.2 mph S13.2 kmh S 22.9 mph36.9 kmh 29.39 in995.3 mb 0.00 in0.0 mm 0.00 in0.0 mm 0.00 in0.0 mm
04:45 AM 54.3°F12.4°C 53.5°F11.9°C 97% 9.2 mph SW14.8 kmh SW 22.9 mph36.9 kmh 29.36 in994.2 mb 0.00 in0.0 mm 0.00 in0.0 mm 0.00 in0.0 mm
05:00 AM 54.1°F12.3°C 53.3°F11.8°C 97% 8.6 mph S13.8 kmh S 20.0 mph32.2 kmh 29.36 in994.2 mb 0.00 in0.0 mm 0.00 in0.0 mm 0.00 in0.0 mm
05:15 AM 54.0°F12.2°C 54.0°F12.2°C 100% 10.5 mph S16.9 kmh S 23.6 mph38.0 kmh 29.36 in994.2 mb 0.06 in1.5 mm 0.24 in6.1 mm 0.06 in1.5 mm
05:30 AM 53.8°F12.1°C 53.8°F12.1°C 100% 12.2 mph SSW19.6 kmh SSW 26.8 mph43.1 kmh 29.33 in993.2 mb 0.10 in2.5 mm 0.16 in4.1 mm 0.10 in2.5 mm
05:45 AM 53.8°F12.1°C 53.8°F12.1°C 100% 12.3 mph S19.8 kmh S 27.9 mph44.9 kmh 29.33 in993.2 mb 0.14 in3.6 mm 0.16 in4.1 mm 0.14 in3.6 mm
06:00 AM 53.8°F12.1°C 53.8°F12.1°C 100% 11.9 mph S19.2 kmh S 28.6 mph46.0 kmh 29.33 in993.2 mb 0.14 in3.6 mm 0.00 in0.0 mm 0.14 in3.6 mm
06:15 AM 53.8°F12.1°C 53.8°F12.1°C 100% 10.2 mph S16.4 kmh S 24.7 mph39.8 kmh 29.30 in992.2 mb 0.09 in2.3 mm 0.00 in0.0 mm 0.14 in3.6 mm
06:30 AM 54.0°F12.2°C 54.0°F12.2°C 100% 12.4 mph S20.0 kmh S 20.4 mph32.8 kmh 29.33 in993.2 mb 0.09 in2.3 mm 0.00 in0.0 mm 0.19 in4.8 mm
06:45 AM 54.1°F12.3°C 54.1°F12.3°C 100% 12.6 mph SW20.3 kmh SW 25.4 mph40.9 kmh 29.30 in992.2 mb 0.04 in1.0 mm 0.00 in0.0 mm 0.19 in4.8 mm
07:00 AM 54.0°F12.2°C 54.0°F12.2°C 100% 7.5 mph W12.1 kmh W 15.7 mph25.3 kmh 29.33 in993.2 mb 0.04 in1.0 mm 0.00 in0.0 mm 0.19 in4.8 mm
07:15 AM 53.4°F11.9°C 53.4°F11.9°C 100% 4.2 mph W6.8 kmh W 10.7 mph17.2 kmh 29.30 in992.2 mb 0.09 in2.3 mm 0.20 in5.1 mm 0.23 in5.8 mm
07:30 AM 53.4°F11.9°C 53.4°F11.9°C 100% 3.2 mph W5.1 kmh W 8.6 mph13.8 kmh 29.33 in993.2 mb 0.04 in1.0 mm 0.00 in0.0 mm 0.23 in5.8 mm
07:45 AM 53.4°F11.9°C 53.4°F11.9°C 100% 7.4 mph WSW11.9 kmh WSW 12.9 mph20.8 kmh 29.36 in994.2 mb 0.04 in1.0 mm 0.00 in0.0 mm 0.23 in5.8 mm
08:00 AM 53.4°F11.9°C 53.4°F11.9°C 100% 6.8 mph W10.9 kmh W 14.0 mph22.5 kmh 29.36 in994.2 mb 0.04 in1.0 mm 0.00 in0.0 mm 0.23 in5.8 mm
08:15 AM 53.4°F11.9°C 53.4°F11.9°C 100% 7.0 mph W11.3 kmh W 13.6 mph21.9 kmh 29.36 in994.2 mb 0.00 in0.0 mm 0.00 in0.0 mm 0.23 in5.8 mm
08:30 AM 53.4°F11.9°C 52.6°F11.4°C 97% 7.4 mph W11.9 kmh W 19.0 mph30.6 kmh 29.36 in994.2 mb 0.00 in0.0 mm 0.00 in0.0 mm 0.23 in5.8 mm
08:45 AM 53.6°F12.0°C 52.8°F11.6°C 97% 8.3 mph WSW13.4 kmh WSW 16.5 mph26.6 kmh 29.36 in994.2 mb 0.00 in0.0 mm 0.00 in0.0 mm 0.23 in5.8 mm
09:00 AM 54.0°F12.2°C 52.6°F11.4°C 95% 7.0 mph W11.3 kmh W 16.1 mph25.9 kmh 29.36 in994.2 mb 0.00 in0.0 mm 0.00 in0.0 mm 0.23 in5.8 mm
09:15 AM 54.1°F12.3°C 52.2°F11.2°C 93% 9.5 mph W15.3 kmh W 19.3 mph31.1 kmh 29.36 in994.2 mb 0.00 in0.0 mm 0.00 in0.0 mm 0.23 in5.8 mm
09:30 AM 54.1°F12.3°C 51.6°F10.9°C 91% 8.0 mph W12.9 kmh W 14.0 mph22.5 kmh 29.39 in995.3 mb 0.00 in0.0 mm 0.00 in0.0 mm 0.23 in5.8 mm
09:45 AM 54.1°F12.3°C 51.3°F10.7°C 90% 8.5 mph W13.7 kmh W 19.7 mph31.7 kmh 29.36 in994.2 mb 0.00 in0.0 mm 0.00 in0.0 mm 0.23 in5.8 mm
10:00 AM 54.1°F12.3°C 50.4°F10.2°C 87% 13.9 mph W22.4 kmh W 27.6 mph44.4 kmh 29.39 in995.3 mb 0.00 in0.0 mm 0.00 in0.0 mm 0.23 in5.8 mm
10:15 AM 54.1°F12.3°C 50.4°F10.2°C 87% 7.3 mph W11.7 kmh W 10.0 mph16.1 kmh 29.41 in995.9 mb 0.00 in0.0 mm 0.00 in0.0 mm 0.23 in5.8 mm
10:30 AM 54.5°F12.5°C 49.4°F9.7°C 83% 9.7 mph W15.6 kmh W 29.7 mph47.8 kmh 29.39 in995.3 mb 0.00 in0.0 mm 0.00 in0.0 mm 0.23 in5.8 mm
10:45 AM 54.9°F12.7°C 49.5°F9.7°C 82% 10.1 mph W16.3 kmh W 24.7 mph39.8 kmh 29.36 in994.2 mb 0.00 in0.0 mm 0.00 in0.0 mm 0.23 in5.8 mm
11:00 AM 55.0°F12.8°C 49.0°F9.4°C 80% 8.9 mph W14.3 kmh W 24.3 mph39.1 kmh 29.39 in995.3 mb 0.00 in0.0 mm 0.00 in0.0 mm 0.23 in5.8 mm
11:15 AM 55.6°F13.1°C 48.8°F9.3°C 78% 8.7 mph W14.0 kmh W 20.4 mph32.8 kmh 29.41 in995.9 mb 0.00 in0.0 mm 0.00 in0.0 mm 0.23 in5.8 mm
11:30 AM 55.4°F13.0°C 48.3°F9.1°C 77% 10.5 mph W16.9 kmh W 31.9 mph51.3 kmh 29.45 in997.3 mb 0.00 in0.0 mm 0.00 in0.0 mm 0.23 in5.8 mm
11:45 AM 55.4°F13.0°C 47.6°F8.7°C 75% 10.5 mph W16.9 kmh W 25.4 mph40.9 kmh 29.45 in997.3 mb 0.00 in0.0 mm 0.00 in0.0 mm 0.23 in5.8 mm
12:00 PM 56.3°F13.5°C 48.8°F9.3°C 76% 9.4 mph W15.1 kmh W 26.5 mph42.6 kmh 29.41 in995.9 mb 0.00 in0.0 mm 0.00 in0.0 mm 0.23 in5.8 mm
12:15 PM 57.2°F14.0°C 49.7°F9.8°C 76% 11.2 mph W18.0 kmh W 23.6 mph38.0 kmh 29.45 in997.3 mb 0.00 in0.0 mm 0.00 in0.0 mm 0.23 in5.8 mm
12:30 PM 56.3°F13.5°C 48.1°F8.9°C 74% 9.3 mph W15.0 kmh W 16.1 mph25.9 kmh 29.45 in997.3 mb 0.00 in0.0 mm 0.00 in0.0 mm 0.23 in5.8 mm
12:45 PM 55.9°F13.3°C 47.8°F8.8°C 74% 13.3 mph W21.4 kmh W 35.1 mph56.5 kmh 29.47 in998.0 mb 0.00 in0.0 mm 0.00 in0.0 mm 0.23 in5.8 mm
01:00 PM 55.6°F13.1°C 47.4°F8.6°C 74% 16.5 mph W26.6 kmh W 24.3 mph39.1 kmh 29.50 in999.0 mb 0.00 in0.0 mm 0.00 in0.0 mm 0.23 in5.8 mm
01:15 PM 55.4°F13.0°C 47.6°F8.7°C 75% 16.2 mph W26.1 kmh W 27.2 mph43.8 kmh 29.50 in999.0 mb 0.00 in0.0 mm 0.00 in0.0 mm 0.23 in5.8 mm
01:30 PM 55.0°F12.8°C 48.0°F8.9°C 77% 13.9 mph W22.4 kmh W 30.1 mph48.4 kmh 29.53 in1000.0 mb 0.00 in0.0 mm 0.00 in0.0 mm 0.23 in5.8 mm
01:45 PM 54.0°F12.2°C 47.3°F8.5°C 78% 14.9 mph WNW24.0 kmh WNW 33.6 mph54.1 kmh 29.47 in998.0 mb 0.00 in0.0 mm 0.00 in0.0 mm 0.23 in5.8 mm
02:00 PM 53.2°F11.8°C 46.2°F7.9°C 77% 12.8 mph W20.6 kmh W 26.5 mph42.6 kmh 29.47 in998.0 mb 0.00 in0.0 mm 0.00 in0.0 mm 0.23 in5.8 mm
02:15 PM 53.2°F11.8°C 46.2°F7.9°C 77% 13.4 mph W21.6 kmh W 20.8 mph33.5 kmh 29.50 in999.0 mb 0.00 in0.0 mm 0.00 in0.0 mm 0.23 in5.8 mm
02:30 PM 53.6°F12.0°C 45.5°F7.5°C 74% 16.5 mph WNW26.6 kmh WNW 36.9 mph59.4 kmh 29.53 in1000.0 mb 0.00 in0.0 mm 0.00 in0.0 mm 0.23 in5.8 mm
02:45 PM 54.0°F12.2°C 43.6°F6.4°C 68% 14.8 mph WNW23.8 kmh WNW 40.8 mph65.7 kmh 29.56 in1001.0 mb 0.00 in0.0 mm 0.00 in0.0 mm 0.23 in5.8 mm
03:00 PM 54.0°F12.2°C 42.5°F5.8°C 65% 16.0 mph NW25.7 kmh NW 34.0 mph54.7 kmh 29.56 in1001.0 mb 0.00 in0.0 mm 0.00 in0.0 mm 0.23 in5.8 mm
03:15 PM 54.9°F12.7°C 44.1°F6.7°C 67% 14.4 mph WNW23.2 kmh WNW 31.1 mph50.1 kmh 29.56 in1001.0 mb 0.00 in0.0 mm 0.00 in0.0 mm 0.23 in5.8 mm
03:30 PM 55.4°F13.0°C 44.2°F6.8°C 66% 13.8 mph WNW22.2 kmh WNW 30.4 mph48.9 kmh 29.53 in1000.0 mb 0.00 in0.0 mm 0.00 in0.0 mm 0.23 in5.8 mm
03:45 PM 54.1°F12.3°C 44.2°F6.8°C 69% 21.0 mph NW33.8 kmh NW 39.4 mph63.4 kmh 29.56 in1001.0 mb 0.00 in0.0 mm 0.00 in0.0 mm 0.23 in5.8 mm
04:00 PM 52.5°F11.4°C 41.1°F5.1°C 65% 16.1 mph WNW25.9 kmh WNW 33.6 mph54.1 kmh 29.59 in1002.0 mb 0.00 in0.0 mm 0.00 in0.0 mm 0.23 in5.8 mm
04:15 PM 52.2°F11.2°C 42.3°F5.7°C 69% 13.9 mph W22.4 kmh W 31.5 mph50.7 kmh 29.59 in1002.0 mb 0.00 in0.0 mm 0.00 in0.0 mm 0.23 in5.8 mm
04:30 PM 52.0°F11.1°C 42.1°F5.6°C 69% 14.1 mph W22.7 kmh W 36.1 mph58.1 kmh 29.59 in1002.0 mb 0.00 in0.0 mm 0.00 in0.0 mm 0.23 in5.8 mm
04:45 PM 51.8°F11.0°C 41.9°F5.5°C 69% 15.7 mph W25.3 kmh W 37.9 mph61.0 kmh 29.59 in1002.0 mb 0.00 in0.0 mm 0.00 in0.0 mm 0.23 in5.8 mm
05:00 PM 51.8°F11.0°C 42.3°F5.7°C 70% 12.2 mph NW19.6 kmh NW 24.7 mph39.8 kmh 29.62 in1003.0 mb 0.00 in0.0 mm 0.00 in0.0 mm 0.23 in5.8 mm
05:15 PM 51.8°F11.0°C 40.8°F4.9°C 66% 19.9 mph W32.0 kmh W 51.2 mph82.4 kmh 29.62 in1003.0 mb 0.00 in0.0 mm 0.00 in0.0 mm 0.23 in5.8 mm
05:30 PM 52.0°F11.1°C 41.4°F5.2°C 67% 17.5 mph W28.2 kmh W 36.5 mph58.7 kmh 29.62 in1003.0 mb 0.00 in0.0 mm 0.00 in0.0 mm 0.23 in5.8 mm
05:45 PM 52.0°F11.1°C 41.0°F5.0°C 66% 15.1 mph WNW24.3 kmh WNW 30.1 mph48.4 kmh 29.62 in1003.0 mb 0.00 in0.0 mm 0.00 in0.0 mm 0.23 in5.8 mm
06:00 PM 52.0°F11.1°C 41.4°F5.2°C 67% 11.6 mph W18.7 kmh W 28.3 mph45.5 kmh 29.62 in1003.0 mb 0.00 in0.0 mm 0.00 in0.0 mm 0.23 in5.8 mm
06:15 PM 51.8°F11.0°C 41.2°F5.1°C 67% 18.0 mph W29.0 kmh W 37.9 mph61.0 kmh 29.62 in1003.0 mb 0.00 in0.0 mm 0.00 in0.0 mm 0.23 in5.8 mm
06:30 PM 51.6°F10.9°C 41.0°F5.0°C 67% 13.2 mph WNW21.2 kmh WNW 20.8 mph33.5 kmh 29.62 in1003.0 mb 0.00 in0.0 mm 0.00 in0.0 mm 0.23 in5.8 mm
06:45 PM 51.8°F11.0°C 40.4°F4.7°C 65% 21.2 mph NW34.1 kmh NW 38.3 mph61.6 kmh 29.62 in1003.0 mb 0.00 in0.0 mm 0.00 in0.0 mm 0.23 in5.8 mm
07:00 PM 51.8°F11.0°C 40.8°F4.9°C 66% 13.1 mph NW21.1 kmh NW 16.1 mph25.9 kmh 29.65 in1004.1 mb 0.00 in0.0 mm 0.00 in0.0 mm 0.23 in5.8 mm
07:15 PM 51.8°F11.0°C 40.8°F4.9°C 66% 12.5 mph NW20.1 kmh NW 24.3 mph39.1 kmh 29.65 in1004.1 mb 0.00 in0.0 mm 0.00 in0.0 mm 0.23 in5.8 mm
07:30 PM 51.8°F11.0°C 41.2°F5.1°C 67% 11.2 mph NNW18.0 kmh NNW 23.6 mph38.0 kmh 29.65 in1004.1 mb 0.00 in0.0 mm 0.00 in0.0 mm 0.23 in5.8 mm
07:45 PM 51.8°F11.0°C 41.2°F5.1°C 67% 20.1 mph WNW32.3 kmh WNW 29.0 mph46.7 kmh 29.68 in1005.1 mb 0.00 in0.0 mm 0.00 in0.0 mm 0.23 in5.8 mm
08:00 PM 51.8°F11.0°C 40.8°F4.9°C 66% 11.7 mph WNW18.8 kmh WNW 22.5 mph36.2 kmh 29.68 in1005.1 mb 0.00 in0.0 mm 0.00 in0.0 mm 0.23 in5.8 mm
08:15 PM 51.6°F10.9°C 40.6°F4.8°C 66% 13.6 mph W21.9 kmh W 24.3 mph39.1 kmh 29.68 in1005.1 mb 0.00 in0.0 mm 0.00 in0.0 mm 0.23 in5.8 mm
08:30 PM 51.3°F10.7°C 40.7°F4.8°C 67% 14.7 mph W23.7 kmh W 32.2 mph51.8 kmh 29.65 in1004.1 mb 0.00 in0.0 mm 0.00 in0.0 mm 0.23 in5.8 mm
08:45 PM 51.1°F10.6°C 40.5°F4.7°C 67% 18.2 mph WNW29.3 kmh WNW 36.9 mph59.4 kmh 29.68 in1005.1 mb 0.00 in0.0 mm 0.00 in0.0 mm 0.23 in5.8 mm
09:00 PM 50.9°F10.5°C 40.3°F4.6°C 67% 13.3 mph NW21.4 kmh NW 23.3 mph37.5 kmh 29.71 in1006.1 mb 0.00 in0.0 mm 0.00 in0.0 mm 0.23 in5.8 mm
09:15 PM 50.7°F10.4°C 40.9°F4.9°C 69% 10.8 mph WNW17.4 kmh WNW 24.7 mph39.8 kmh 29.71 in1006.1 mb 0.00 in0.0 mm 0.00 in0.0 mm 0.23 in5.8 mm
09:30 PM 50.7°F10.4°C 40.5°F4.7°C 68% 10.4 mph WNW16.7 kmh WNW 23.3 mph37.5 kmh 29.71 in1006.1 mb 0.00 in0.0 mm 0.00 in0.0 mm 0.23 in5.8 mm
09:45 PM 50.7°F10.4°C 40.5°F4.7°C 68% 12.2 mph WNW19.6 kmh WNW 25.1 mph40.4 kmh 29.74 in1007.1 mb 0.00 in0.0 mm 0.00 in0.0 mm 0.23 in5.8 mm
10:00 PM 50.4°F10.2°C 40.6°F4.8°C 69% 8.9 mph WNW14.3 kmh WNW 19.0 mph30.6 kmh 29.74 in1007.1 mb 0.00 in0.0 mm 0.00 in0.0 mm 0.23 in5.8 mm
10:15 PM 50.2°F10.1°C 40.8°F4.9°C 70% 8.1 mph WNW13.0 kmh WNW 16.5 mph26.6 kmh 29.74 in1007.1 mb 0.00 in0.0 mm 0.00 in0.0 mm 0.23 in5.8 mm
10:30 PM 50.2°F10.1°C 40.8°F4.9°C 70% 8.6 mph NW13.8 kmh NW 14.0 mph22.5 kmh 29.74 in1007.1 mb 0.00 in0.0 mm 0.00 in0.0 mm 0.23 in5.8 mm
10:45 PM 50.2°F10.1°C 41.1°F5.1°C 71% 9.3 mph NW15.0 kmh NW 17.9 mph28.8 kmh 29.74 in1007.1 mb 0.00 in0.0 mm 0.00 in0.0 mm 0.23 in5.8 mm
11:00 PM 50.0°F10.0°C 41.0°F5.0°C 71% 9.4 mph NW15.1 kmh NW 14.0 mph22.5 kmh 29.74 in1007.1 mb 0.00 in0.0 mm 0.00 in0.0 mm 0.19 in4.8 mm
11:15 PM 50.2°F10.1°C 41.1°F5.1°C 71% 9.3 mph NW15.0 kmh NW 21.1 mph34.0 kmh 29.74 in1007.1 mb 0.00 in0.0 mm 0.00 in0.0 mm 0.19 in4.8 mm
11:30 PM 50.2°F10.1°C 41.1°F5.1°C 71% 10.5 mph NW16.9 kmh NW 21.1 mph34.0 kmh 29.74 in1007.1 mb 0.00 in0.0 mm 0.00 in0.0 mm 0.19 in4.8 mm
11:45 PM 50.0°F10.0°C 41.3°F5.2°C 72% 10.7 mph NW17.2 kmh NW 17.2 mph27.7 kmh 29.77 in1008.1 mb 0.00 in0.0 mm 0.00 in0.0 mm 0.19 in4.8 mm